sensor_id;sensor_type;location;lat;lon;timestamp;P1;durP1;ratioP1;P2;durP2;ratioP2
36233;SDS011;43467;50.890;5.982;2022-09-30T00:00:41;6.63;;;4.90;;
36233;SDS011;43467;50.890;5.982;2022-09-30T00:03:07;8.52;;;5.07;;
36233;SDS011;43467;50.890;5.982;2022-09-30T00:05:32;9.13;;;5.80;;
36233;SDS011;43467;50.890;5.982;2022-09-30T00:07:58;6.70;;;4.53;;
36233;SDS011;43467;50.890;5.982;2022-09-30T00:10:23;9.63;;;5.07;;
36233;SDS011;43467;50.890;5.982;2022-09-30T00:12:50;5.93;;;4.90;;
36233;SDS011;43467;50.890;5.982;2022-09-30T00:15:16;8.00;;;5.10;;
36233;SDS011;43467;50.890;5.982;2022-09-30T00:17:42;8.57;;;5.32;;
36233;SDS011;43467;50.890;5.982;2022-09-30T00:20:07;5.85;;;5.00;;
36233;SDS011;43467;50.890;5.982;2022-09-30T00:22:33;10.60;;;5.20;;
36233;SDS011;43467;50.890;5.982;2022-09-30T00:24:59;9.77;;;5.43;;
36233;SDS011;43467;50.890;5.982;2022-09-30T00:27:24;10.63;;;6.40;;
36233;SDS011;43467;50.890;5.982;2022-09-30T00:29:50;7.97;;;4.90;;
36233;SDS011;43467;50.890;5.982;2022-09-30T00:32:15;7.18;;;4.85;;
36233;SDS011;43467;50.890;5.982;2022-09-30T00:34:40;10.65;;;5.63;;
36233;SDS011;43467;50.890;5.982;2022-09-30T00:37:06;12.43;;;5.45;;
36233;SDS011;43467;50.890;5.982;2022-09-30T00:39:32;7.63;;;5.30;;
36233;SDS011;43467;50.890;5.982;2022-09-30T00:42:01;9.93;;;4.90;;
36233;SDS011;43467;50.890;5.982;2022-09-30T00:47:33;9.85;;;4.93;;
36233;SDS011;43467;50.890;5.982;2022-09-30T00:52:40;6.32;;;4.97;;
36233;SDS011;43467;50.890;5.982;2022-09-30T00:55:09;7.25;;;4.65;;
36233;SDS011;43467;50.890;5.982;2022-09-30T00:57:45;7.93;;;4.97;;
36233;SDS011;43467;50.890;5.982;2022-09-30T01:00:11;6.70;;;5.10;;
36233;SDS011;43467;50.890;5.982;2022-09-30T01:02:36;6.90;;;4.90;;
36233;SDS011;43467;50.890;5.982;2022-09-30T01:05:01;7.57;;;4.55;;
36233;SDS011;43467;50.890;5.982;2022-09-30T01:07:27;6.78;;;5.25;;
36233;SDS011;43467;50.890;5.982;2022-09-30T01:09:53;7.00;;;5.28;;
36233;SDS011;43467;50.890;5.982;2022-09-30T01:12:19;9.30;;;5.43;;
36233;SDS011;43467;50.890;5.982;2022-09-30T01:14:49;7.68;;;5.43;;
36233;SDS011;43467;50.890;5.982;2022-09-30T01:25:52;8.38;;;5.55;;
36233;SDS011;43467;50.890;5.982;2022-09-30T01:45:40;11.85;;;5.72;;
36233;SDS011;43467;50.890;5.982;2022-09-30T01:48:26;9.35;;;5.60;;
36233;SDS011;43467;50.890;5.982;2022-09-30T01:51:09;7.35;;;5.50;;
36233;SDS011;43467;50.890;5.982;2022-09-30T01:53:48;7.68;;;5.45;;
36233;SDS011;43467;50.890;5.982;2022-09-30T01:56:31;9.10;;;5.20;;
36233;SDS011;43467;50.890;5.982;2022-09-30T01:59:04;10.02;;;6.53;;
36233;SDS011;43467;50.890;5.982;2022-09-30T02:01:35;7.63;;;5.88;;
36233;SDS011;43467;50.890;5.982;2022-09-30T02:04:06;11.65;;;5.60;;
36233;SDS011;43467;50.890;5.982;2022-09-30T02:06:39;8.73;;;5.57;;
36233;SDS011;43467;50.890;5.982;2022-09-30T02:09:15;8.75;;;6.03;;
36233;SDS011;43467;50.890;5.982;2022-09-30T02:11:48;7.05;;;5.72;;
36233;SDS011;43467;50.890;5.982;2022-09-30T02:17:08;7.43;;;6.25;;
36233;SDS011;43467;50.890;5.982;2022-09-30T02:19:46;14.38;;;7.57;;
36233;SDS011;43467;50.890;5.982;2022-09-30T02:22:22;11.18;;;6.95;;
36233;SDS011;43467;50.890;5.982;2022-09-30T02:24:54;7.82;;;6.00;;
36233;SDS011;43467;50.890;5.982;2022-09-30T02:27:25;11.35;;;7.50;;
36233;SDS011;43467;50.890;5.982;2022-09-30T02:29:56;8.38;;;6.57;;
36233;SDS011;43467;50.890;5.982;2022-09-30T02:32:25;8.35;;;6.50;;
36233;SDS011;43467;50.890;5.982;2022-09-30T02:34:59;10.88;;;6.85;;
36233;SDS011;43467;50.890;5.982;2022-09-30T02:37:34;10.65;;;7.47;;
36233;SDS011;43467;50.890;5.982;2022-09-30T02:42:43;10.07;;;6.90;;
36233;SDS011;43467;50.890;5.982;2022-09-30T02:45:11;13.75;;;8.15;;
36233;SDS011;43467;50.890;5.982;2022-09-30T02:55:34;11.63;;;8.10;;
36233;SDS011;43467;50.890;5.982;2022-09-30T02:58:20;15.48;;;9.13;;
36233;SDS011;43467;50.890;5.982;2022-09-30T03:00:50;11.85;;;8.18;;
36233;SDS011;43467;50.890;5.982;2022-09-30T03:03:20;11.63;;;8.20;;
36233;SDS011;43467;50.890;5.982;2022-09-30T03:05:51;12.73;;;8.63;;
36233;SDS011;43467;50.890;5.982;2022-09-30T03:08:16;9.85;;;7.72;;
36233;SDS011;43467;50.890;5.982;2022-09-30T03:10:42;12.60;;;9.63;;
36233;SDS011;43467;50.890;5.982;2022-09-30T03:15:59;12.52;;;9.93;;
36233;SDS011;43467;50.890;5.982;2022-09-30T03:29:25;12.75;;;9.57;;
36233;SDS011;43467;50.890;5.982;2022-09-30T03:32:01;14.38;;;10.02;;
36233;SDS011;43467;50.890;5.982;2022-09-30T03:40:36;15.63;;;10.27;;
36233;SDS011;43467;50.890;5.982;2022-09-30T03:43:05;12.50;;;9.73;;
36233;SDS011;43467;50.890;5.982;2022-09-30T03:45:44;15.25;;;9.75;;
36233;SDS011;43467;50.890;5.982;2022-09-30T03:48:14;13.37;;;9.63;;
36233;SDS011;43467;50.890;5.982;2022-09-30T03:50:41;18.33;;;10.43;;
36233;SDS011;43467;50.890;5.982;2022-09-30T03:53:08;16.58;;;10.70;;
36233;SDS011;43467;50.890;5.982;2022-09-30T03:55:45;15.75;;;10.95;;
36233;SDS011;43467;50.890;5.982;2022-09-30T03:58:12;18.90;;;11.88;;
36233;SDS011;43467;50.890;5.982;2022-09-30T04:00:40;16.52;;;11.30;;
36233;SDS011;43467;50.890;5.982;2022-09-30T04:03:11;14.38;;;11.63;;
36233;SDS011;43467;50.890;5.982;2022-09-30T04:05:37;18.27;;;11.45;;
36233;SDS011;43467;50.890;5.982;2022-09-30T04:08:02;16.63;;;12.07;;
36233;SDS011;43467;50.890;5.982;2022-09-30T04:10:27;16.77;;;12.20;;
36233;SDS011;43467;50.890;5.982;2022-09-30T04:12:53;15.10;;;11.57;;
36233;SDS011;43467;50.890;5.982;2022-09-30T04:15:18;15.93;;;11.32;;
36233;SDS011;43467;50.890;5.982;2022-09-30T04:17:44;17.05;;;11.65;;
36233;SDS011;43467;50.890;5.982;2022-09-30T04:20:09;15.65;;;11.65;;
36233;SDS011;43467;50.890;5.982;2022-09-30T04:22:36;14.40;;;10.57;;
36233;SDS011;43467;50.890;5.982;2022-09-30T04:25:02;14.18;;;10.07;;
36233;SDS011;43467;50.890;5.982;2022-09-30T04:27:28;14.90;;;10.95;;
36233;SDS011;43467;50.890;5.982;2022-09-30T04:29:54;20.42;;;10.82;;
36233;SDS011;43467;50.890;5.982;2022-09-30T04:32:20;16.00;;;10.38;;
36233;SDS011;43467;50.890;5.982;2022-09-30T04:34:47;14.88;;;11.13;;
36233;SDS011;43467;50.890;5.982;2022-09-30T04:37:12;15.40;;;10.60;;
36233;SDS011;43467;50.890;5.982;2022-09-30T04:39:38;13.98;;;9.82;;
36233;SDS011;43467;50.890;5.982;2022-09-30T04:42:04;14.80;;;10.93;;
36233;SDS011;43467;50.890;5.982;2022-09-30T04:44:31;13.65;;;10.55;;
36233;SDS011;43467;50.890;5.982;2022-09-30T04:46:56;18.98;;;10.82;;
36233;SDS011;43467;50.890;5.982;2022-09-30T04:49:22;18.40;;;11.90;;
36233;SDS011;43467;50.890;5.982;2022-09-30T04:51:48;16.30;;;11.85;;
36233;SDS011;43467;50.890;5.982;2022-09-30T04:54:13;16.80;;;12.63;;
36233;SDS011;43467;50.890;5.982;2022-09-30T04:56:40;17.02;;;12.15;;
36233;SDS011;43467;50.890;5.982;2022-09-30T04:59:06;15.40;;;11.73;;
36233;SDS011;43467;50.890;5.982;2022-09-30T05:01:31;17.17;;;11.88;;
36233;SDS011;43467;50.890;5.982;2022-09-30T05:03:57;16.42;;;12.07;;
36233;SDS011;43467;50.890;5.982;2022-09-30T05:06:22;17.05;;;11.52;;
36233;SDS011;43467;50.890;5.982;2022-09-30T05:08:47;15.95;;;10.98;;
36233;SDS011;43467;50.890;5.982;2022-09-30T05:11:14;17.50;;;12.20;;
36233;SDS011;43467;50.890;5.982;2022-09-30T05:13:42;16.88;;;12.07;;
36233;SDS011;43467;50.890;5.982;2022-09-30T05:16:08;16.73;;;12.13;;
36233;SDS011;43467;50.890;5.982;2022-09-30T05:18:34;14.35;;;10.98;;
36233;SDS011;43467;50.890;5.982;2022-09-30T05:21:00;19.40;;;12.02;;
36233;SDS011;43467;50.890;5.982;2022-09-30T05:23:27;24.83;;;12.73;;
36233;SDS011;43467;50.890;5.982;2022-09-30T05:25:54;16.33;;;11.88;;
36233;SDS011;43467;50.890;5.982;2022-09-30T05:28:20;18.52;;;12.10;;
36233;SDS011;43467;50.890;5.982;2022-09-30T05:30:46;18.15;;;12.57;;
36233;SDS011;43467;50.890;5.982;2022-09-30T05:33:13;17.52;;;12.13;;
36233;SDS011;43467;50.890;5.982;2022-09-30T05:35:39;14.23;;;10.63;;
36233;SDS011;43467;50.890;5.982;2022-09-30T05:38:07;15.60;;;11.55;;
36233;SDS011;43467;50.890;5.982;2022-09-30T05:40:33;17.15;;;11.73;;
36233;SDS011;43467;50.890;5.982;2022-09-30T05:43:02;15.85;;;11.38;;
36233;SDS011;43467;50.890;5.982;2022-09-30T05:45:27;19.17;;;12.75;;
36233;SDS011;43467;50.890;5.982;2022-09-30T05:47:53;15.10;;;10.98;;
36233;SDS011;43467;50.890;5.982;2022-09-30T05:50:19;15.93;;;11.23;;
36233;SDS011;43467;50.890;5.982;2022-09-30T05:52:46;15.93;;;10.80;;
36233;SDS011;43467;50.890;5.982;2022-09-30T05:55:11;17.42;;;11.05;;
36233;SDS011;43467;50.890;5.982;2022-09-30T05:57:37;15.55;;;11.02;;
36233;SDS011;43467;50.890;5.982;2022-09-30T06:00:03;15.52;;;10.43;;
36233;SDS011;43467;50.890;5.982;2022-09-30T06:02:31;15.55;;;10.88;;
36233;SDS011;43467;50.890;5.982;2022-09-30T06:04:57;14.60;;;10.45;;
36233;SDS011;43467;50.890;5.982;2022-09-30T06:07:23;15.45;;;10.32;;
36233;SDS011;43467;50.890;5.982;2022-09-30T06:09:48;14.27;;;9.57;;
36233;SDS011;43467;50.890;5.982;2022-09-30T06:12:13;14.32;;;10.38;;
36233;SDS011;43467;50.890;5.982;2022-09-30T06:14:40;15.93;;;10.35;;
36233;SDS011;43467;50.890;5.982;2022-09-30T06:17:05;18.60;;;11.20;;
36233;SDS011;43467;50.890;5.982;2022-09-30T06:19:31;16.02;;;10.93;;
36233;SDS011;43467;50.890;5.982;2022-09-30T06:21:56;16.17;;;11.00;;
36233;SDS011;43467;50.890;5.982;2022-09-30T06:24:22;20.20;;;12.02;;
36233;SDS011;43467;50.890;5.982;2022-09-30T06:26:48;17.27;;;11.52;;
36233;SDS011;43467;50.890;5.982;2022-09-30T06:29:13;22.83;;;12.13;;
36233;SDS011;43467;50.890;5.982;2022-09-30T06:31:39;17.00;;;11.98;;
36233;SDS011;43467;50.890;5.982;2022-09-30T06:34:04;20.88;;;13.02;;
36233;SDS011;43467;50.890;5.982;2022-09-30T06:36:30;17.98;;;12.13;;
36233;SDS011;43467;50.890;5.982;2022-09-30T06:38:58;18.40;;;12.77;;
36233;SDS011;43467;50.890;5.982;2022-09-30T06:41:28;19.08;;;13.05;;
36233;SDS011;43467;50.890;5.982;2022-09-30T06:43:54;21.75;;;13.38;;
36233;SDS011;43467;50.890;5.982;2022-09-30T06:46:20;21.05;;;13.02;;
36233;SDS011;43467;50.890;5.982;2022-09-30T06:48:47;20.45;;;13.73;;
36233;SDS011;43467;50.890;5.982;2022-09-30T06:51:16;22.48;;;13.40;;
36233;SDS011;43467;50.890;5.982;2022-09-30T06:53:41;21.33;;;14.38;;
36233;SDS011;43467;50.890;5.982;2022-09-30T06:56:07;21.65;;;14.57;;
36233;SDS011;43467;50.890;5.982;2022-09-30T06:58:32;21.63;;;14.23;;
36233;SDS011;43467;50.890;5.982;2022-09-30T07:00:59;20.08;;;14.63;;
36233;SDS011;43467;50.890;5.982;2022-09-30T07:03:27;20.98;;;14.48;;
36233;SDS011;43467;50.890;5.982;2022-09-30T07:05:57;24.10;;;15.73;;
36233;SDS011;43467;50.890;5.982;2022-09-30T07:08:24;22.15;;;15.68;;
36233;SDS011;43467;50.890;5.982;2022-09-30T07:10:55;21.70;;;15.60;;
36233;SDS011;43467;50.890;5.982;2022-09-30T07:13:21;21.52;;;14.65;;
36233;SDS011;43467;50.890;5.982;2022-09-30T07:15:47;22.33;;;14.98;;
36233;SDS011;43467;50.890;5.982;2022-09-30T07:18:16;22.52;;;15.65;;
36233;SDS011;43467;50.890;5.982;2022-09-30T07:20:50;21.27;;;14.18;;
36233;SDS011;43467;50.890;5.982;2022-09-30T07:23:17;25.95;;;15.38;;
36233;SDS011;43467;50.890;5.982;2022-09-30T07:25:50;24.25;;;15.93;;
36233;SDS011;43467;50.890;5.982;2022-09-30T07:28:25;18.65;;;14.77;;
36233;SDS011;43467;50.890;5.982;2022-09-30T07:30:55;20.80;;;15.23;;
36233;SDS011;43467;50.890;5.982;2022-09-30T07:33:22;26.23;;;15.85;;
36233;SDS011;43467;50.890;5.982;2022-09-30T07:35:51;19.48;;;15.43;;
36233;SDS011;43467;50.890;5.982;2022-09-30T07:38:19;26.13;;;16.30;;
36233;SDS011;43467;50.890;5.982;2022-09-30T07:40:59;23.33;;;15.82;;
36233;SDS011;43467;50.890;5.982;2022-09-30T07:43:29;24.60;;;15.85;;
36233;SDS011;43467;50.890;5.982;2022-09-30T07:46:10;21.70;;;16.00;;
36233;SDS011;43467;50.890;5.982;2022-09-30T07:48:37;20.45;;;15.57;;
36233;SDS011;43467;50.890;5.982;2022-09-30T07:51:10;23.75;;;15.65;;
36233;SDS011;43467;50.890;5.982;2022-09-30T07:53:53;25.90;;;17.13;;
36233;SDS011;43467;50.890;5.982;2022-09-30T07:56:21;19.95;;;14.95;;
36233;SDS011;43467;50.890;5.982;2022-09-30T07:58:47;23.05;;;16.23;;
36233;SDS011;43467;50.890;5.982;2022-09-30T08:01:13;24.83;;;16.52;;
36233;SDS011;43467;50.890;5.982;2022-09-30T08:03:41;23.25;;;16.33;;
36233;SDS011;43467;50.890;5.982;2022-09-30T08:06:17;20.88;;;15.60;;
36233;SDS011;43467;50.890;5.982;2022-09-30T08:08:44;20.30;;;15.88;;
36233;SDS011;43467;50.890;5.982;2022-09-30T08:11:10;23.42;;;16.42;;
36233;SDS011;43467;50.890;5.982;2022-09-30T08:13:37;21.70;;;15.40;;
36233;SDS011;43467;50.890;5.982;2022-09-30T08:16:03;25.70;;;15.65;;
36233;SDS011;43467;50.890;5.982;2022-09-30T08:18:29;21.63;;;15.52;;
36233;SDS011;43467;50.890;5.982;2022-09-30T08:20:54;20.98;;;16.10;;
36233;SDS011;43467;50.890;5.982;2022-09-30T08:23:20;20.77;;;15.82;;
36233;SDS011;43467;50.890;5.982;2022-09-30T08:25:46;20.75;;;15.68;;
36233;SDS011;43467;50.890;5.982;2022-09-30T08:28:12;21.20;;;15.65;;
36233;SDS011;43467;50.890;5.982;2022-09-30T08:30:38;21.98;;;15.05;;
36233;SDS011;43467;50.890;5.982;2022-09-30T08:33:04;20.50;;;14.43;;
36233;SDS011;43467;50.890;5.982;2022-09-30T08:35:29;19.98;;;15.13;;
36233;SDS011;43467;50.890;5.982;2022-09-30T08:37:55;19.83;;;14.82;;
36233;SDS011;43467;50.890;5.982;2022-09-30T08:40:29;20.00;;;14.23;;
36233;SDS011;43467;50.890;5.982;2022-09-30T08:53:55;20.42;;;14.35;;
36233;SDS011;43467;50.890;5.982;2022-09-30T08:56:31;20.73;;;15.57;;
36233;SDS011;43467;50.890;5.982;2022-09-30T08:59:20;20.25;;;15.57;;
36233;SDS011;43467;50.890;5.982;2022-09-30T09:04:51;22.92;;;15.75;;
36233;SDS011;43467;50.890;5.982;2022-09-30T09:07:39;21.90;;;15.75;;
36233;SDS011;43467;50.890;5.982;2022-09-30T09:15:36;21.63;;;15.43;;
36233;SDS011;43467;50.890;5.982;2022-09-30T09:21:01;22.67;;;15.60;;
36233;SDS011;43467;50.890;5.982;2022-09-30T09:23:33;25.77;;;15.18;;
36233;SDS011;43467;50.890;5.982;2022-09-30T09:25:59;20.15;;;14.63;;
36233;SDS011;43467;50.890;5.982;2022-09-30T09:31:14;18.40;;;13.73;;
36233;SDS011;43467;50.890;5.982;2022-09-30T09:33:42;19.48;;;14.63;;
36233;SDS011;43467;50.890;5.982;2022-09-30T09:36:24;20.88;;;14.82;;
36233;SDS011;43467;50.890;5.982;2022-09-30T09:41:45;17.60;;;12.77;;
36233;SDS011;43467;50.890;5.982;2022-09-30T09:47:00;15.27;;;11.27;;
36233;SDS011;43467;50.890;5.982;2022-09-30T09:49:30;17.52;;;11.90;;
36233;SDS011;43467;50.890;5.982;2022-09-30T09:54:22;15.40;;;9.25;;
36233;SDS011;43467;50.890;5.982;2022-09-30T09:56:52;12.77;;;8.60;;
36233;SDS011;43467;50.890;5.982;2022-09-30T09:59:18;16.35;;;10.35;;
36233;SDS011;43467;50.890;5.982;2022-09-30T10:01:48;15.02;;;10.20;;
36233;SDS011;43467;50.890;5.982;2022-09-30T10:04:23;15.50;;;11.48;;
36233;SDS011;43467;50.890;5.982;2022-09-30T10:14:32;15.27;;;10.70;;
36233;SDS011;43467;50.890;5.982;2022-09-30T10:16:59;18.08;;;11.65;;
36233;SDS011;43467;50.890;5.982;2022-09-30T10:19:26;19.70;;;12.02;;
36233;SDS011;43467;50.890;5.982;2022-09-30T10:24:32;15.65;;;10.85;;
36233;SDS011;43467;50.890;5.982;2022-09-30T10:27:00;14.77;;;11.38;;
36233;SDS011;43467;50.890;5.982;2022-09-30T10:29:30;11.85;;;9.90;;
36233;SDS011;43467;50.890;5.982;2022-09-30T10:31:58;12.82;;;9.98;;
36233;SDS011;43467;50.890;5.982;2022-09-30T10:34:37;15.82;;;10.98;;
36233;SDS011;43467;50.890;5.982;2022-09-30T10:37:07;13.60;;;8.93;;
36233;SDS011;43467;50.890;5.982;2022-09-30T10:39:38;13.80;;;11.20;;
36233;SDS011;43467;50.890;5.982;2022-09-30T10:42:20;13.05;;;10.15;;
36233;SDS011;43467;50.890;5.982;2022-09-30T10:44:56;17.88;;;11.32;;
36233;SDS011;43467;50.890;5.982;2022-09-30T10:47:26;15.15;;;10.27;;
36233;SDS011;43467;50.890;5.982;2022-09-30T10:49:57;15.52;;;11.25;;
36233;SDS011;43467;50.890;5.982;2022-09-30T10:52:29;15.25;;;11.27;;
36233;SDS011;43467;50.890;5.982;2022-09-30T10:54:58;16.67;;;11.82;;
36233;SDS011;43467;50.890;5.982;2022-09-30T10:57:31;16.80;;;11.75;;
36233;SDS011;43467;50.890;5.982;2022-09-30T11:00:17;13.70;;;11.37;;
36233;SDS011;43467;50.890;5.982;2022-09-30T11:05:42;16.73;;;12.52;;
36233;SDS011;43467;50.890;5.982;2022-09-30T11:08:13;16.65;;;12.00;;
36233;SDS011;43467;50.890;5.982;2022-09-30T11:24:38;13.50;;;11.20;;
36233;SDS011;43467;50.890;5.982;2022-09-30T11:29:48;14.20;;;11.10;;
36233;SDS011;43467;50.890;5.982;2022-09-30T11:35:55;15.00;;;11.32;;
36233;SDS011;43467;50.890;5.982;2022-09-30T11:38:45;14.20;;;10.35;;
36233;SDS011;43467;50.890;5.982;2022-09-30T11:41:57;14.18;;;8.23;;
36233;SDS011;43467;50.890;5.982;2022-09-30T11:49:36;11.93;;;8.80;;
36233;SDS011;43467;50.890;5.982;2022-09-30T11:54:45;11.20;;;8.63;;
36233;SDS011;43467;50.890;5.982;2022-09-30T11:57:30;10.18;;;7.80;;
36233;SDS011;43467;50.890;5.982;2022-09-30T12:00:00;8.40;;;7.10;;
36233;SDS011;43467;50.890;5.982;2022-09-30T12:05:11;10.07;;;5.47;;
36233;SDS011;43467;50.890;5.982;2022-09-30T12:07:43;7.05;;;5.10;;
36233;SDS011;43467;50.890;5.982;2022-09-30T12:10:25;6.15;;;5.20;;
36233;SDS011;43467;50.890;5.982;2022-09-30T12:12:59;6.97;;;4.60;;
36233;SDS011;43467;50.890;5.982;2022-09-30T12:15:30;6.25;;;4.05;;
36233;SDS011;43467;50.890;5.982;2022-09-30T12:17:59;6.07;;;4.15;;
36233;SDS011;43467;50.890;5.982;2022-09-30T12:20:30;5.47;;;3.78;;
36233;SDS011;43467;50.890;5.982;2022-09-30T12:23:17;7.20;;;3.90;;
36233;SDS011;43467;50.890;5.982;2022-09-30T12:28:25;8.27;;;4.43;;
36233;SDS011;43467;50.890;5.982;2022-09-30T12:36:52;6.18;;;4.80;;
36233;SDS011;43467;50.890;5.982;2022-09-30T12:48:03;9.40;;;5.25;;
36233;SDS011;43467;50.890;5.982;2022-09-30T12:50:54;5.78;;;4.15;;
36233;SDS011;43467;50.890;5.982;2022-09-30T12:53:23;11.48;;;5.30;;
36233;SDS011;43467;50.890;5.982;2022-09-30T12:55:52;8.15;;;5.03;;
36233;SDS011;43467;50.890;5.982;2022-09-30T12:58:20;8.38;;;5.47;;
36233;SDS011;43467;50.890;5.982;2022-09-30T13:01:00;8.07;;;4.97;;
36233;SDS011;43467;50.890;5.982;2022-09-30T13:03:42;7.60;;;5.00;;
36233;SDS011;43467;50.890;5.982;2022-09-30T13:09:32;8.35;;;4.40;;
36233;SDS011;43467;50.890;5.982;2022-09-30T13:13:07;7.93;;;4.75;;
36233;SDS011;43467;50.890;5.982;2022-09-30T13:20:53;7.93;;;4.70;;
36233;SDS011;43467;50.890;5.982;2022-09-30T13:23:46;17.58;;;4.60;;
36233;SDS011;43467;50.890;5.982;2022-09-30T13:28:47;9.05;;;3.72;;
36233;SDS011;43467;50.890;5.982;2022-09-30T13:31:15;5.65;;;3.58;;
36233;SDS011;43467;50.890;5.982;2022-09-30T13:36:55;6.60;;;3.70;;
36233;SDS011;43467;50.890;5.982;2022-09-30T13:39:16;7.35;;;3.00;;
36233;SDS011;43467;50.890;5.982;2022-09-30T13:41:54;5.20;;;3.00;;
36233;SDS011;43467;50.890;5.982;2022-09-30T13:44:43;7.18;;;2.33;;
36233;SDS011;43467;50.890;5.982;2022-09-30T13:50:29;3.08;;;2.22;;
36233;SDS011;43467;50.890;5.982;2022-09-30T13:52:56;4.20;;;2.15;;
36233;SDS011;43467;50.890;5.982;2022-09-30T13:58:03;4.18;;;1.60;;
36233;SDS011;43467;50.890;5.982;2022-09-30T14:06:13;5.47;;;1.67;;
36233;SDS011;43467;50.890;5.982;2022-09-30T14:09:31;3.42;;;2.17;;
36233;SDS011;43467;50.890;5.982;2022-09-30T14:14:24;2.63;;;1.88;;
36233;SDS011;43467;50.890;5.982;2022-09-30T14:22:39;3.78;;;1.50;;
36233;SDS011;43467;50.890;5.982;2022-09-30T14:25:12;6.15;;;1.83;;
36233;SDS011;43467;50.890;5.982;2022-09-30T14:27:54;2.20;;;1.60;;
36233;SDS011;43467;50.890;5.982;2022-09-30T14:30:30;3.33;;;1.83;;
36233;SDS011;43467;50.890;5.982;2022-09-30T14:33:03;3.13;;;1.60;;
36233;SDS011;43467;50.890;5.982;2022-09-30T14:35:42;2.08;;;1.50;;
36233;SDS011;43467;50.890;5.982;2022-09-30T14:38:18;2.22;;;1.50;;
36233;SDS011;43467;50.890;5.982;2022-09-30T14:40:51;3.65;;;1.70;;
36233;SDS011;43467;50.890;5.982;2022-09-30T14:43:19;4.75;;;2.83;;
36233;SDS011;43467;50.890;5.982;2022-09-30T14:45:55;2.40;;;1.90;;
36233;SDS011;43467;50.890;5.982;2022-09-30T14:48:23;5.15;;;1.80;;
36233;SDS011;43467;50.890;5.982;2022-09-30T14:50:59;4.50;;;1.90;;
36233;SDS011;43467;50.890;5.982;2022-09-30T14:55:56;2.45;;;1.48;;
36233;SDS011;43467;50.890;5.982;2022-09-30T14:58:26;3.47;;;2.28;;
36233;SDS011;43467;50.890;5.982;2022-09-30T15:01:27;1.63;;;1.30;;
36233;SDS011;43467;50.890;5.982;2022-09-30T15:06:35;5.43;;;4.00;;
36233;SDS011;43467;50.890;5.982;2022-09-30T15:09:06;5.13;;;3.40;;
36233;SDS011;43467;50.890;5.982;2022-09-30T15:11:39;2.72;;;1.67;;
36233;SDS011;43467;50.890;5.982;2022-09-30T15:14:15;5.20;;;1.75;;
36233;SDS011;43467;50.890;5.982;2022-09-30T15:16:51;4.57;;;2.00;;
36233;SDS011;43467;50.890;5.982;2022-09-30T15:19:22;3.43;;;2.13;;
36233;SDS011;43467;50.890;5.982;2022-09-30T15:21:52;2.55;;;1.50;;
36233;SDS011;43467;50.890;5.982;2022-09-30T15:24:19;2.28;;;1.70;;
36233;SDS011;43467;50.890;5.982;2022-09-30T15:26:48;3.47;;;1.60;;
36233;SDS011;43467;50.890;5.982;2022-09-30T15:29:15;4.22;;;2.60;;
36233;SDS011;43467;50.890;5.982;2022-09-30T15:31:42;4.97;;;3.15;;
36233;SDS011;43467;50.890;5.982;2022-09-30T15:34:16;10.80;;;7.10;;
36233;SDS011;43467;50.890;5.982;2022-09-30T15:36:43;6.82;;;4.13;;
36233;SDS011;43467;50.890;5.982;2022-09-30T15:39:19;6.65;;;3.28;;
36233;SDS011;43467;50.890;5.982;2022-09-30T15:41:46;4.20;;;2.50;;
36233;SDS011;43467;50.890;5.982;2022-09-30T15:44:27;1.90;;;1.40;;
36233;SDS011;43467;50.890;5.982;2022-09-30T15:47:05;2.50;;;1.30;;
36233;SDS011;43467;50.890;5.982;2022-09-30T15:49:54;3.67;;;1.80;;
36233;SDS011;43467;50.890;5.982;2022-09-30T15:52:22;2.88;;;1.42;;
36233;SDS011;43467;50.890;5.982;2022-09-30T15:54:51;4.25;;;1.50;;
36233;SDS011;43467;50.890;5.982;2022-09-30T15:57:38;3.08;;;1.77;;
36233;SDS011;43467;50.890;5.982;2022-09-30T16:03:07;4.68;;;1.92;;
36233;SDS011;43467;50.890;5.982;2022-09-30T16:06:04;5.18;;;3.40;;
36233;SDS011;43467;50.890;5.982;2022-09-30T16:08:30;2.50;;;1.60;;
36233;SDS011;43467;50.890;5.982;2022-09-30T16:11:01;6.00;;;3.72;;
36233;SDS011;43467;50.890;5.982;2022-09-30T16:13:27;7.78;;;2.92;;
36233;SDS011;43467;50.890;5.982;2022-09-30T16:15:55;5.28;;;3.30;;
36233;SDS011;43467;50.890;5.982;2022-09-30T16:18:26;5.53;;;2.95;;
36233;SDS011;43467;50.890;5.982;2022-09-30T16:23:30;5.05;;;2.97;;
36233;SDS011;43467;50.890;5.982;2022-09-30T16:26:20;4.03;;;2.20;;
36233;SDS011;43467;50.890;5.982;2022-09-30T16:28:49;5.65;;;2.35;;
36233;SDS011;43467;50.890;5.982;2022-09-30T16:31:15;2.15;;;1.73;;
36233;SDS011;43467;50.890;5.982;2022-09-30T16:33:41;5.07;;;2.30;;
36233;SDS011;43467;50.890;5.982;2022-09-30T16:36:08;2.60;;;1.85;;
36233;SDS011;43467;50.890;5.982;2022-09-30T16:38:35;6.60;;;2.50;;
36233;SDS011;43467;50.890;5.982;2022-09-30T16:41:01;12.13;;;5.72;;
36233;SDS011;43467;50.890;5.982;2022-09-30T16:43:28;7.72;;;4.65;;
36233;SDS011;43467;50.890;5.982;2022-09-30T16:45:54;4.13;;;2.90;;
36233;SDS011;43467;50.890;5.982;2022-09-30T16:48:20;6.80;;;3.22;;
36233;SDS011;43467;50.890;5.982;2022-09-30T16:50:48;5.47;;;3.53;;
36233;SDS011;43467;50.890;5.982;2022-09-30T16:53:17;6.15;;;2.83;;
36233;SDS011;43467;50.890;5.982;2022-09-30T16:55:42;4.40;;;2.13;;
36233;SDS011;43467;50.890;5.982;2022-09-30T16:58:09;5.43;;;2.90;;
36233;SDS011;43467;50.890;5.982;2022-09-30T17:00:36;5.57;;;3.00;;
36233;SDS011;43467;50.890;5.982;2022-09-30T17:03:02;6.00;;;2.95;;
36233;SDS011;43467;50.890;5.982;2022-09-30T17:05:27;5.88;;;3.53;;
36233;SDS011;43467;50.890;5.982;2022-09-30T17:07:53;5.88;;;3.15;;
36233;SDS011;43467;50.890;5.982;2022-09-30T17:10:24;6.03;;;2.35;;
36233;SDS011;43467;50.890;5.982;2022-09-30T17:12:55;3.73;;;2.20;;
36233;SDS011;43467;50.890;5.982;2022-09-30T17:15:24;6.90;;;3.15;;
36233;SDS011;43467;50.890;5.982;2022-09-30T17:17:50;5.20;;;3.50;;
36233;SDS011;43467;50.890;5.982;2022-09-30T17:20:16;7.18;;;4.70;;
36233;SDS011;43467;50.890;5.982;2022-09-30T17:22:43;7.45;;;4.35;;
36233;SDS011;43467;50.890;5.982;2022-09-30T17:25:10;6.53;;;3.85;;
36233;SDS011;43467;50.890;5.982;2022-09-30T17:27:35;4.35;;;2.50;;
36233;SDS011;43467;50.890;5.982;2022-09-30T17:30:02;5.50;;;2.75;;
36233;SDS011;43467;50.890;5.982;2022-09-30T17:32:28;4.72;;;2.88;;
36233;SDS011;43467;50.890;5.982;2022-09-30T17:34:54;5.35;;;2.60;;
36233;SDS011;43467;50.890;5.982;2022-09-30T17:37:20;6.88;;;3.78;;
36233;SDS011;43467;50.890;5.982;2022-09-30T17:39:46;12.63;;;6.80;;
36233;SDS011;43467;50.890;5.982;2022-09-30T17:42:12;8.40;;;3.90;;
36233;SDS011;43467;50.890;5.982;2022-09-30T17:44:57;9.52;;;5.05;;
36233;SDS011;43467;50.890;5.982;2022-09-30T17:47:22;8.10;;;3.92;;
36233;SDS011;43467;50.890;5.982;2022-09-30T17:49:48;7.28;;;5.28;;
36233;SDS011;43467;50.890;5.982;2022-09-30T17:52:13;10.68;;;5.57;;
36233;SDS011;43467;50.890;5.982;2022-09-30T17:54:39;7.80;;;4.90;;
36233;SDS011;43467;50.890;5.982;2022-09-30T17:57:06;10.48;;;6.07;;
36233;SDS011;43467;50.890;5.982;2022-09-30T17:59:32;6.47;;;4.35;;
36233;SDS011;43467;50.890;5.982;2022-09-30T18:01:58;7.57;;;4.43;;
36233;SDS011;43467;50.890;5.982;2022-09-30T18:04:23;4.03;;;3.20;;
36233;SDS011;43467;50.890;5.982;2022-09-30T18:06:50;13.77;;;9.18;;
36233;SDS011;43467;50.890;5.982;2022-09-30T18:09:18;8.23;;;4.80;;
36233;SDS011;43467;50.890;5.982;2022-09-30T18:11:43;8.27;;;4.13;;
36233;SDS011;43467;50.890;5.982;2022-09-30T18:14:10;5.65;;;3.50;;